createdAt,value
2022-10-06T00:00:45.962Z,73.00
2022-10-06T00:05:45.905Z,71.00
2022-10-06T00:10:45.826Z,74.00
2022-10-06T00:15:45.808Z,74.00
2022-10-06T00:20:45.697Z,74.00
2022-10-06T00:25:45.637Z,74.00
2022-10-06T00:30:45.606Z,75.00
2022-10-06T00:35:45.518Z,75.00
2022-10-06T00:40:45.516Z,74.00
2022-10-06T00:45:45.386Z,76.00
2022-10-06T00:50:45.329Z,78.00
2022-10-06T00:55:45.257Z,78.00
2022-10-06T01:00:45.213Z,78.00
2022-10-06T01:05:45.107Z,78.00
2022-10-06T01:10:45.037Z,78.00
2022-10-06T01:15:45.168Z,78.00
2022-10-06T01:20:45.031Z,78.00
2022-10-06T01:25:44.829Z,76.00
2022-10-06T01:30:44.821Z,78.00
2022-10-06T01:35:44.719Z,74.00
2022-10-06T01:40:44.639Z,75.00
2022-10-06T01:45:44.579Z,76.00
2022-10-06T01:50:44.509Z,75.00
2022-10-06T01:55:44.440Z,74.00
2022-10-06T02:00:44.370Z,74.00
2022-10-06T02:05:44.301Z,74.00
2022-10-06T02:10:44.223Z,73.00
2022-10-06T02:15:44.209Z,74.00
2022-10-06T02:20:44.154Z,74.00
2022-10-06T02:25:44.028Z,74.00
2022-10-06T02:30:43.975Z,74.00
2022-10-06T02:35:43.901Z,75.00
2022-10-06T02:40:43.840Z,76.00
2022-10-06T02:45:43.751Z,77.00
2022-10-06T02:50:43.681Z,78.00
2022-10-06T02:55:43.615Z,78.00
2022-10-06T03:00:43.554Z,78.00
2022-10-06T03:05:43.462Z,79.00
2022-10-06T03:10:43.417Z,78.00
2022-10-06T03:15:43.384Z,78.00
2022-10-06T03:20:43.274Z,78.00
2022-10-06T03:25:43.214Z,76.00
2022-10-06T03:30:43.167Z,75.00
2022-10-06T03:35:43.079Z,76.00
2022-10-06T03:40:43.034Z,74.00
2022-10-06T03:45:42.975Z,73.00
2022-10-06T03:50:42.904Z,73.00
2022-10-06T03:55:42.805Z,71.00
2022-10-06T04:00:42.828Z,71.00
2022-10-06T04:05:42.688Z,71.00
2022-10-06T04:10:42.624Z,70.00
2022-10-06T04:15:42.537Z,69.00
2022-10-06T04:20:42.484Z,70.00
2022-10-06T04:25:42.417Z,69.00
2022-10-06T04:30:43.106Z,70.00
2022-10-06T04:35:42.277Z,71.00
2022-10-06T04:40:42.225Z,72.00
2022-10-06T04:45:42.202Z,73.00
2022-10-06T04:50:42.087Z,73.00
2022-10-06T04:55:42.038Z,74.00
2022-10-06T05:00:42.023Z,75.00
2022-10-06T05:05:41.867Z,77.00
2022-10-06T05:10:41.818Z,76.00
2022-10-06T05:15:41.736Z,76.00
2022-10-06T05:20:41.696Z,75.00
2022-10-06T05:25:41.607Z,75.00
2022-10-06T05:30:41.573Z,74.00
2022-10-06T05:35:41.469Z,74.00
2022-10-06T05:40:41.416Z,73.00
2022-10-06T05:45:41.406Z,71.00
2022-10-06T05:50:41.269Z,72.00
2022-10-06T05:55:41.188Z,71.00
2022-10-06T06:00:41.156Z,70.00
2022-10-06T06:05:41.048Z,71.00
2022-10-06T06:10:40.999Z,70.00
2022-10-06T06:15:40.931Z,70.00
2022-10-06T06:20:40.880Z,72.00
2022-10-06T06:25:40.787Z,72.00
2022-10-06T06:30:40.727Z,71.00
2022-10-06T06:35:40.659Z,73.00
2022-10-06T06:40:40.599Z,71.00
2022-10-06T06:45:40.554Z,72.00
2022-10-06T06:50:40.470Z,74.00
2022-10-06T06:55:40.401Z,71.00
2022-10-06T07:00:40.380Z,74.00
2022-10-06T07:05:40.272Z,75.00
2022-10-06T07:10:40.212Z,72.00
2022-10-06T07:15:40.282Z,73.00
2022-10-06T07:20:40.159Z,75.00
2022-10-06T07:25:40.038Z,76.00
2022-10-06T07:30:41.026Z,77.00
2022-10-06T07:35:39.894Z,76.00
2022-10-06T07:40:46.253Z,76.00
2022-10-06T07:45:40.934Z,75.00
2022-10-06T07:50:39.725Z,76.00
2022-10-06T07:55:39.659Z,75.00
2022-10-06T08:00:39.599Z,74.00
2022-10-06T08:05:39.519Z,74.00
2022-10-06T08:10:39.481Z,74.00
2022-10-06T08:15:39.465Z,73.00
2022-10-06T08:20:39.346Z,72.00
2022-10-06T08:25:39.269Z,74.00
2022-10-06T08:30:39.217Z,75.00
2022-10-06T08:35:39.148Z,77.00
2022-10-06T08:40:39.082Z,76.00
2022-10-06T08:45:39.098Z,76.00
2022-10-06T08:50:38.948Z,77.00
2022-10-06T08:55:38.905Z,78.00
2022-10-06T09:00:38.830Z,76.00
2022-10-06T09:05:38.760Z,78.00
2022-10-06T09:10:38.702Z,79.00
2022-10-06T09:15:38.712Z,77.00
2022-10-06T09:20:38.566Z,76.00
2022-10-06T09:25:38.494Z,76.00
2022-10-06T09:30:38.447Z,77.00
2022-10-06T09:35:38.386Z,75.00
2022-10-06T09:40:38.318Z,77.00
2022-10-06T09:45:38.239Z,75.00
2022-10-06T09:50:38.179Z,76.00
2022-10-06T09:55:38.148Z,76.00
2022-10-06T10:00:38.116Z,76.00
2022-10-06T10:05:37.980Z,76.00
2022-10-06T10:10:37.929Z,75.00
2022-10-06T10:15:37.881Z,75.00
2022-10-06T10:20:37.842Z,73.00
2022-10-06T10:25:37.734Z,74.00
2022-10-06T10:30:37.676Z,73.00
2022-10-06T10:35:37.604Z,75.00
2022-10-06T10:40:37.577Z,75.00
2022-10-06T10:45:37.478Z,74.00
2022-10-06T10:50:37.419Z,73.00
2022-10-06T10:55:37.348Z,73.00
2022-10-06T11:00:37.342Z,73.00
2022-10-06T11:05:37.231Z,73.00
2022-10-06T11:10:37.161Z,73.00
2022-10-06T11:15:37.112Z,74.00
2022-10-06T11:20:37.032Z,73.00
2022-10-06T11:25:36.974Z,74.00
2022-10-06T11:30:36.911Z,73.00
2022-10-06T11:35:36.850Z,73.00
2022-10-06T11:40:36.799Z,73.00
2022-10-06T11:45:36.772Z,74.00
2022-10-06T11:50:36.662Z,74.00
2022-10-06T11:55:36.600Z,74.00
2022-10-06T12:00:36.571Z,73.00
2022-10-06T12:10:37.400Z,73.00
2022-10-06T12:20:37.277Z,74.00
2022-10-06T12:25:36.205Z,74.00
2022-10-06T12:30:36.186Z,75.00
2022-10-06T12:35:36.075Z,74.00
2022-10-06T12:40:36.016Z,73.00
2022-10-06T12:45:35.947Z,74.00
2022-10-06T12:50:35.877Z,74.00
2022-10-06T12:55:35.829Z,72.00
2022-10-06T13:00:35.767Z,72.00
2022-10-06T13:05:35.689Z,72.00
2022-10-06T13:10:35.661Z,70.00
2022-10-06T13:15:35.567Z,70.00
2022-10-06T13:20:35.519Z,69.00
2022-10-06T13:25:35.428Z,69.00
2022-10-06T13:30:38.716Z,70.00
2022-10-06T13:35:35.308Z,69.00
2022-10-06T13:40:50.399Z,69.00
2022-10-06T13:45:36.186Z,71.00
2022-10-06T13:50:35.097Z,68.00
2022-10-06T13:55:35.039Z,69.00
2022-10-06T14:00:34.982Z,70.00
2022-10-06T14:05:34.940Z,70.00
2022-10-06T14:10:34.853Z,71.00
2022-10-06T14:15:34.814Z,72.00
2022-10-06T14:20:34.714Z,74.00
2022-10-06T14:25:34.643Z,75.00
2022-10-06T14:30:34.584Z,75.00
2022-10-06T14:35:34.536Z,75.00
2022-10-06T14:40:34.495Z,78.00
2022-10-06T14:45:34.395Z,77.00
2022-10-06T14:50:34.331Z,75.00
2022-10-06T14:55:34.258Z,76.00
2022-10-06T15:00:34.210Z,75.00
2022-10-06T15:05:34.130Z,75.00
2022-10-06T15:10:34.071Z,73.00
2022-10-06T15:15:34.040Z,74.00
2022-10-06T15:20:33.964Z,74.00
2022-10-06T15:25:33.891Z,76.00
2022-10-06T15:30:33.817Z,76.00
2022-10-06T15:35:33.737Z,76.00
2022-10-06T15:40:33.688Z,77.00
2022-10-06T15:45:33.628Z,77.00
2022-10-06T15:50:33.550Z,78.00
2022-10-06T15:55:33.500Z,78.00
2022-10-06T16:00:33.430Z,78.00
2022-10-06T16:05:33.361Z,78.00
2022-10-06T16:10:33.302Z,78.00
2022-10-06T16:15:33.235Z,77.00
2022-10-06T16:20:33.182Z,76.00
2022-10-06T16:25:33.113Z,76.00
2022-10-06T16:30:33.048Z,76.00
2022-10-06T16:35:32.986Z,75.00
2022-10-06T16:40:32.928Z,75.00
2022-10-06T16:45:32.854Z,75.00
2022-10-06T16:50:32.796Z,74.00
2022-10-06T16:55:32.729Z,73.00
2022-10-06T17:00:32.715Z,72.00
2022-10-06T17:05:32.610Z,72.00
2022-10-06T17:10:32.548Z,72.00
2022-10-06T17:15:33.695Z,72.00
2022-10-06T17:20:32.417Z,70.00
2022-10-06T17:25:32.365Z,71.00
2022-10-06T17:30:32.290Z,69.00
2022-10-06T17:35:32.213Z,69.00
2022-10-06T17:40:32.154Z,71.00
2022-10-06T17:45:32.111Z,71.00
2022-10-06T17:50:32.046Z,71.00
2022-10-06T17:55:31.967Z,70.00
2022-10-06T18:00:31.909Z,71.00
2022-10-06T18:05:33.126Z,71.00
2022-10-06T18:10:31.788Z,72.00
2022-10-06T18:15:31.720Z,72.00
2022-10-06T18:20:31.647Z,76.00
2022-10-06T18:25:31.576Z,77.00
2022-10-06T18:30:31.520Z,74.00
2022-10-06T18:40:32.401Z,74.00
2022-10-06T18:45:35.500Z,75.00
2022-10-06T18:50:32.348Z,75.00
2022-10-06T18:55:31.252Z,74.00
2022-10-06T19:00:31.174Z,74.00
2022-10-06T19:05:31.107Z,71.00
2022-10-06T19:10:31.038Z,69.00
2022-10-06T19:15:30.943Z,70.00
2022-10-06T19:20:30.883Z,72.00
2022-10-06T19:25:30.814Z,73.00
2022-10-06T19:30:30.779Z,74.00
2022-10-06T19:35:30.684Z,74.00
2022-10-06T19:40:30.646Z,74.00
2022-10-06T19:45:30.563Z,73.00
2022-10-06T19:50:30.503Z,72.00
2022-10-06T19:55:30.467Z,74.00
2022-10-06T20:00:30.376Z,74.00
2022-10-06T20:05:30.320Z,72.00
2022-10-06T20:10:30.252Z,71.00
2022-10-06T20:15:30.187Z,71.00
2022-10-06T20:20:30.157Z,71.00
2022-10-06T20:25:30.055Z,71.00
2022-10-06T20:30:30.093Z,70.00
2022-10-06T20:35:29.938Z,71.00
2022-10-06T20:40:29.866Z,72.00
2022-10-06T20:45:29.813Z,72.00
2022-10-06T20:50:29.739Z,72.00
2022-10-06T20:55:29.683Z,74.00
2022-10-06T21:00:29.693Z,74.00
2022-10-06T21:05:29.619Z,73.00
2022-10-06T21:10:29.603Z,71.00
2022-10-06T21:15:29.529Z,71.00
2022-10-06T21:20:29.442Z,73.00
2022-10-06T21:25:29.372Z,75.00
2022-10-06T21:30:29.310Z,74.00
2022-10-06T21:35:29.251Z,74.00
2022-10-06T21:40:29.191Z,73.00
2022-10-06T21:45:32.925Z,71.00
2022-10-06T21:50:29.054Z,72.00
2022-10-06T21:55:28.975Z,74.00
2022-10-06T22:00:28.965Z,74.00
2022-10-06T22:05:28.846Z,74.00
2022-10-06T22:10:28.795Z,73.00
2022-10-06T22:15:28.734Z,71.00
2022-10-06T22:20:28.652Z,73.00
2022-10-06T22:25:28.577Z,74.00
2022-10-06T22:30:28.526Z,73.00
2022-10-06T22:35:28.497Z,72.00
2022-10-06T22:40:28.414Z,71.00
2022-10-06T22:45:28.337Z,70.00
2022-10-06T22:50:28.295Z,70.00
2022-10-06T22:55:28.184Z,71.00
2022-10-06T23:00:28.202Z,73.00
2022-10-06T23:05:28.028Z,74.00
2022-10-06T23:10:28.020Z,72.00
2022-10-06T23:15:27.959Z,72.00
2022-10-06T23:20:27.826Z,74.00
2022-10-06T23:25:27.805Z,74.00
2022-10-06T23:30:27.727Z,73.00
2022-10-06T23:35:27.608Z,74.00
2022-10-06T23:40:27.546Z,75.00
2022-10-06T23:45:27.524Z,75.00
2022-10-06T23:50:27.387Z,74.00
2022-10-06T23:55:27.344Z,72.00
